createdAt,value
2019-05-06T00:00:25.374Z,44.40
2019-05-06T00:02:54.228Z,46.50
2019-05-06T00:05:21.255Z,44.60
2019-05-06T00:07:54.522Z,42.80
2019-05-06T00:10:25.525Z,46.30
2019-05-06T00:12:54.113Z,54.60
2019-05-06T00:15:23.363Z,52.20
2019-05-06T00:17:50.008Z,52.40
2019-05-06T00:20:17.246Z,52.00
2019-05-06T00:22:44.061Z,52.30
2019-05-06T00:25:14.043Z,50.80
2019-05-06T00:27:54.450Z,50.40
2019-05-06T00:30:21.796Z,49.70
2019-05-06T00:32:48.484Z,47.60
2019-05-06T00:35:15.298Z,48.30
2019-05-06T00:37:44.141Z,51.90
2019-05-06T00:40:14.073Z,54.10
2019-05-06T00:42:45.592Z,54.10
2019-05-06T00:45:13.670Z,53.10
2019-05-06T00:47:40.447Z,53.50
2019-05-06T00:50:07.752Z,56.70
2019-05-06T00:52:35.807Z,57.00
2019-05-06T00:55:04.208Z,56.10
2019-05-06T00:57:43.836Z,52.70
2019-05-06T01:00:16.041Z,52.00
2019-05-06T01:02:43.930Z,52.40
2019-05-06T01:05:14.013Z,47.20
2019-05-06T01:07:40.919Z,42.60
2019-05-06T01:10:09.021Z,41.60
2019-05-06T01:12:37.883Z,41.30
2019-05-06T01:15:08.400Z,40.60
2019-05-06T01:17:35.327Z,41.00
2019-05-06T01:20:06.987Z,40.00
2019-05-06T01:22:34.190Z,39.40
2019-05-06T01:25:01.364Z,37.10
2019-05-06T01:27:28.183Z,38.90
2019-05-06T01:29:55.073Z,38.60
2019-05-06T01:32:23.678Z,38.10
2019-05-06T01:34:51.089Z,37.80
2019-05-06T01:37:18.008Z,37.30
2019-05-06T01:39:44.709Z,37.30
2019-05-06T01:42:14.875Z,37.60
2019-05-06T01:44:41.935Z,37.70
2019-05-06T01:47:09.370Z,37.50
2019-05-06T01:49:36.454Z,38.20
2019-05-06T01:52:04.098Z,37.90
2019-05-06T01:54:31.484Z,38.20
2019-05-06T01:56:58.211Z,38.00
2019-05-06T01:59:25.131Z,37.90
2019-05-06T02:01:58.050Z,37.70
2019-05-06T02:04:20.618Z,37.70
2019-05-06T02:06:47.566Z,37.60
2019-05-06T02:09:16.349Z,37.20
2019-05-06T02:11:45.152Z,37.90
2019-05-06T02:14:13.983Z,37.80
2019-05-06T02:16:40.885Z,37.90
2019-05-06T02:19:07.870Z,38.40
2019-05-06T02:21:34.594Z,39.00
2019-05-06T02:24:04.238Z,39.10
2019-05-06T02:26:31.448Z,38.90
2019-05-06T02:29:00.066Z,39.00
2019-05-06T02:31:46.046Z,39.20
2019-05-06T02:34:18.711Z,39.20
2019-05-06T02:36:49.853Z,39.70
2019-05-06T02:39:16.987Z,40.60
2019-05-06T02:41:43.798Z,39.50
2019-05-06T02:44:13.621Z,42.10
2019-05-06T02:46:43.878Z,49.00
2019-05-06T02:49:13.241Z,53.20
2019-05-06T02:51:40.386Z,58.50
2019-05-06T02:54:07.128Z,59.40
2019-05-06T02:56:34.058Z,59.90
2019-05-06T02:59:03.731Z,60.80
2019-05-06T03:01:29.908Z,60.90
2019-05-06T03:03:56.742Z,59.60
2019-05-06T03:06:24.001Z,59.20
2019-05-06T03:08:53.869Z,58.10
2019-05-06T03:11:20.039Z,54.40
2019-05-06T03:13:46.883Z,53.30
2019-05-06T03:16:14.269Z,52.50
2019-05-06T03:18:43.359Z,51.70
2019-05-06T03:21:13.631Z,52.90
2019-05-06T03:23:43.752Z,54.00
2019-05-06T03:26:13.411Z,53.40
2019-05-06T03:28:38.693Z,54.60
2019-05-06T03:31:07.287Z,54.10
2019-05-06T03:33:50.028Z,54.10
2019-05-06T03:36:15.146Z,52.50
2019-05-06T03:38:33.417Z,53.00
2019-05-06T03:41:02.807Z,53.60
2019-05-06T03:43:28.952Z,53.10
2019-05-06T03:46:14.304Z,60.70
2019-05-06T03:48:44.158Z,65.50
2019-05-06T03:51:13.489Z,67.30
2019-05-06T03:53:43.360Z,67.80
2019-05-06T03:56:15.468Z,67.10
2019-05-06T03:58:43.480Z,66.40
2019-05-06T04:01:13.177Z,65.80
2019-05-06T04:03:47.815Z,64.10
2019-05-06T04:06:13.526Z,63.80
2019-05-06T04:08:39.720Z,63.80
2019-05-06T04:11:08.624Z,64.00
2019-05-06T04:13:36.703Z,63.00
2019-05-06T04:16:14.549Z,62.70
2019-05-06T04:18:46.074Z,62.70
2019-05-06T04:21:24.305Z,62.80
2019-05-06T04:23:58.827Z,62.70
2019-05-06T04:26:28.235Z,61.60
2019-05-06T04:28:55.995Z,59.00
2019-05-06T04:31:24.086Z,58.00
2019-05-06T04:34:08.563Z,60.60
2019-05-06T04:36:19.768Z,63.50
2019-05-06T04:38:46.611Z,64.40
2019-05-06T04:41:13.832Z,65.40
2019-05-06T04:43:43.596Z,67.90
2019-05-06T04:46:09.722Z,64.90
2019-05-06T04:48:37.140Z,65.50
2019-05-06T04:51:04.042Z,64.80
2019-05-06T04:53:33.901Z,64.00
2019-05-06T04:56:00.025Z,62.70
2019-05-06T04:58:27.122Z,62.50
2019-05-06T05:00:54.979Z,61.90
2019-05-06T05:03:22.925Z,62.10
2019-05-06T05:05:52.723Z,61.60
2019-05-06T05:08:19.183Z,59.80
2019-05-06T05:11:03.664Z,59.10
2019-05-06T05:13:35.232Z,57.30
2019-05-06T05:16:07.936Z,57.70
2019-05-06T05:18:36.570Z,58.80
2019-05-06T05:21:03.375Z,59.80
2019-05-06T05:23:31.939Z,59.90
2019-05-06T05:25:58.952Z,65.50
2019-05-06T05:28:25.723Z,65.40
2019-05-06T05:30:52.570Z,66.20
2019-05-06T05:33:19.567Z,65.40
2019-05-06T05:35:46.659Z,66.50
2019-05-06T05:38:13.671Z,66.20
2019-05-06T05:40:42.842Z,65.50
2019-05-06T05:43:11.633Z,65.80
2019-05-06T05:45:38.467Z,67.00
2019-05-06T05:48:07.277Z,64.50
2019-05-06T05:50:38.664Z,65.20
2019-05-06T05:53:05.782Z,64.60
2019-05-06T05:55:33.023Z,64.40
2019-05-06T05:58:02.926Z,65.30
2019-05-06T06:00:32.443Z,66.00
2019-05-06T06:02:59.443Z,65.80
2019-05-06T06:05:26.272Z,65.50
2019-05-06T06:07:53.528Z,65.50
2019-05-06T06:10:25.307Z,65.40
2019-05-06T06:12:53.780Z,66.80
2019-05-06T06:15:23.110Z,66.80
2019-05-06T06:17:55.817Z,66.40
2019-05-06T06:20:42.421Z,65.20
2019-05-06T06:23:13.429Z,64.20
2019-05-06T06:25:42.259Z,64.70
2019-05-06T06:28:09.617Z,64.00
2019-05-06T06:30:43.574Z,64.20
2019-05-06T06:33:12.728Z,64.40
2019-05-06T06:35:43.736Z,64.40
2019-05-06T06:38:23.827Z,64.90
2019-05-06T06:40:55.099Z,64.70
2019-05-06T06:43:23.004Z,64.90
2019-05-06T06:45:49.956Z,63.80
2019-05-06T06:48:16.911Z,64.30
2019-05-06T06:50:43.707Z,64.80
2019-05-06T06:53:12.308Z,63.80
2019-05-06T06:55:42.677Z,62.90
2019-05-06T06:58:11.990Z,62.90
2019-05-06T07:00:42.506Z,61.10
2019-05-06T07:03:12.338Z,60.10
2019-05-06T07:05:44.321Z,60.30
2019-05-06T07:08:12.681Z,60.90
2019-05-06T07:10:43.130Z,60.30
2019-05-06T07:13:13.854Z,60.60
2019-05-06T07:15:42.608Z,60.10
2019-05-06T07:18:09.850Z,60.20
2019-05-06T07:20:42.946Z,60.50
2019-05-06T07:23:32.514Z,59.10
2019-05-06T07:25:58.790Z,53.80
2019-05-06T07:28:25.518Z,54.00
2019-05-06T07:30:52.720Z,53.30
2019-05-06T07:33:19.494Z,53.70
2019-05-06T07:35:46.454Z,52.30
2019-05-06T07:38:13.146Z,53.40
2019-05-06T07:40:41.979Z,51.60
2019-05-06T07:43:27.533Z,52.50
2019-05-06T07:46:12.332Z,51.60
2019-05-06T07:48:39.187Z,52.40
2019-05-06T07:51:06.031Z,51.10
2019-05-06T07:53:32.945Z,51.60
2019-05-06T07:55:59.841Z,51.70
2019-05-06T07:58:26.638Z,52.20
2019-05-06T08:00:53.439Z,52.20
2019-05-06T08:03:22.255Z,51.80
2019-05-06T08:05:55.736Z,52.30
2019-05-06T08:08:18.145Z,52.50
2019-05-06T08:10:45.373Z,52.50
2019-05-06T08:13:13.064Z,53.20
2019-05-06T08:15:42.064Z,52.80
2019-05-06T08:18:09.287Z,52.90
2019-05-06T08:20:36.244Z,53.20
2019-05-06T08:23:09.059Z,53.00
2019-05-06T08:25:37.824Z,52.60
2019-05-06T08:28:04.739Z,52.90
2019-05-06T08:30:32.366Z,52.20
2019-05-06T08:32:59.487Z,52.50
2019-05-06T08:35:26.633Z,52.60
2019-05-06T08:37:53.590Z,52.90
2019-05-06T08:40:22.684Z,52.80
2019-05-06T08:42:53.043Z,52.40
2019-05-06T08:45:19.400Z,52.00
2019-05-06T08:47:46.463Z,51.30
2019-05-06T08:50:18.393Z,51.30
2019-05-06T08:53:05.023Z,51.40
2019-05-06T08:55:43.848Z,50.20
2019-05-06T08:58:10.961Z,50.00
2019-05-06T09:00:39.759Z,49.70
2019-05-06T09:03:06.673Z,49.20
2019-05-06T09:05:33.610Z,48.90
2019-05-06T09:08:00.444Z,48.10
2019-05-06T09:10:27.208Z,47.10
2019-05-06T09:12:53.940Z,46.90
2019-05-06T09:15:22.003Z,46.90
2019-05-06T09:17:49.016Z,46.70
2019-05-06T09:20:16.374Z,46.40
2019-05-06T09:22:43.142Z,46.10
2019-05-06T09:25:12.869Z,45.20
2019-05-06T09:27:42.191Z,44.90
2019-05-06T09:30:13.168Z,43.90
2019-05-06T09:32:42.844Z,44.40
2019-05-06T09:35:12.944Z,44.40
2019-05-06T09:37:39.132Z,44.00
2019-05-06T09:40:08.952Z,43.70
2019-05-06T09:42:35.831Z,43.90
2019-05-06T09:45:05.659Z,44.10
2019-05-06T09:47:34.250Z,43.90
2019-05-06T09:50:02.691Z,43.80
2019-05-06T09:52:29.864Z,43.70
2019-05-06T09:54:58.809Z,42.70
2019-05-06T09:57:32.513Z,43.30
2019-05-06T09:59:59.159Z,43.60
2019-05-06T10:02:25.957Z,43.40
2019-05-06T10:04:52.766Z,43.60
2019-05-06T10:07:19.546Z,43.70
2019-05-06T10:09:46.345Z,43.50
2019-05-06T10:12:13.289Z,43.20
2019-05-06T10:14:42.988Z,43.00
2019-05-06T10:17:09.656Z,42.60
2019-05-06T10:19:36.804Z,43.20
2019-05-06T10:22:03.734Z,43.00
2019-05-06T10:24:32.361Z,43.00
2019-05-06T10:26:59.988Z,43.30
2019-05-06T10:29:29.437Z,43.20
2019-05-06T10:31:58.020Z,43.10
2019-05-06T10:34:24.833Z,43.70
2019-05-06T10:37:15.333Z,43.30
2019-05-06T10:39:52.164Z,43.50
2019-05-06T10:42:24.634Z,43.70
2019-05-06T10:45:24.176Z,44.30
2019-05-06T10:47:51.218Z,44.50
2019-05-06T10:50:18.025Z,44.50
2019-05-06T10:52:46.789Z,44.60
2019-05-06T10:55:13.619Z,44.60
2019-05-06T10:57:43.127Z,44.80
2019-05-06T11:00:12.274Z,44.90
2019-05-06T11:02:47.110Z,44.70
2019-05-06T11:05:14.415Z,45.00
2019-05-06T11:07:43.115Z,45.00
2019-05-06T11:10:21.549Z,45.20
2019-05-06T11:12:39.485Z,45.10
2019-05-06T11:15:07.584Z,44.60
2019-05-06T11:17:34.683Z,44.60
2019-05-06T11:20:06.170Z,44.80
2019-05-06T11:22:32.722Z,44.10
2019-05-06T11:24:59.093Z,44.20
2019-05-06T11:27:32.035Z,43.20
2019-05-06T11:29:56.575Z,43.10
2019-05-06T11:32:33.036Z,43.60
2019-05-06T11:35:16.612Z,43.20
2019-05-06T11:37:50.870Z,42.50
2019-05-06T11:40:17.292Z,42.30
2019-05-06T11:42:44.363Z,42.40
2019-05-06T11:45:12.244Z,41.60
2019-05-06T11:47:39.276Z,40.90
2019-05-06T11:50:07.395Z,41.20
2019-05-06T11:52:34.809Z,41.60
2019-05-06T11:55:03.752Z,41.80
2019-05-06T11:57:32.625Z,42.30
2019-05-06T11:59:59.950Z,42.50
2019-05-06T12:02:28.040Z,42.10
2019-05-06T12:04:55.123Z,42.10
2019-05-06T12:07:24.688Z,42.50
2019-05-06T12:09:53.595Z,42.90
2019-05-06T12:12:19.673Z,42.70
2019-05-06T12:14:46.719Z,42.50
2019-05-06T12:17:13.639Z,42.30
2019-05-06T12:19:43.020Z,42.50
2019-05-06T12:22:09.793Z,42.00
2019-05-06T12:24:36.719Z,43.10
2019-05-06T12:27:03.455Z,42.80
2019-05-06T12:29:32.334Z,42.50
2019-05-06T12:32:03.513Z,41.20
2019-05-06T12:34:29.886Z,41.60
2019-05-06T12:36:58.488Z,40.90
2019-05-06T12:39:26.505Z,40.90
2019-05-06T12:41:58.735Z,41.40
2019-05-06T12:44:25.482Z,41.30
2019-05-06T12:46:59.841Z,40.90
2019-05-06T12:49:25.476Z,40.70
2019-05-06T12:51:53.810Z,39.70
2019-05-06T12:54:22.371Z,40.10
2019-05-06T12:56:51.878Z,39.60
2019-05-06T12:59:18.731Z,40.40
2019-05-06T13:01:46.073Z,39.50
2019-05-06T13:04:13.797Z,38.80
2019-05-06T13:06:46.090Z,39.90
2019-05-06T13:09:12.559Z,39.60
2019-05-06T13:11:39.149Z,39.30
2019-05-06T13:14:06.022Z,39.70
2019-05-06T13:16:33.460Z,39.20
2019-05-06T13:19:03.100Z,39.60
2019-05-06T13:21:29.815Z,38.60
2019-05-06T13:23:58.296Z,38.30
2019-05-06T13:26:25.616Z,38.80
2019-05-06T13:28:54.692Z,38.70
2019-05-06T13:31:25.608Z,39.00
2019-05-06T13:33:54.625Z,39.50
2019-05-06T13:36:22.806Z,38.10
2019-05-06T13:38:53.442Z,39.30
2019-05-06T13:41:21.979Z,38.50
2019-05-06T13:43:54.179Z,39.00
2019-05-06T13:46:23.617Z,38.80
2019-05-06T13:48:50.429Z,38.80
2019-05-06T13:51:25.123Z,38.20
2019-05-06T13:53:52.940Z,37.90
2019-05-06T13:56:19.915Z,38.40
2019-05-06T13:58:47.222Z,38.30
2019-05-06T14:01:15.832Z,37.40
2019-05-06T14:03:43.053Z,38.30
2019-05-06T14:06:12.309Z,38.50
2019-05-06T14:08:39.267Z,38.70
2019-05-06T14:11:05.945Z,37.30
2019-05-06T14:13:32.914Z,37.40
2019-05-06T14:15:59.944Z,38.00
2019-05-06T14:18:26.966Z,37.20
2019-05-06T14:20:53.779Z,37.20
2019-05-06T14:23:22.098Z,36.90
2019-05-06T14:25:57.303Z,37.10
2019-05-06T14:28:43.052Z,37.50
2019-05-06T14:31:11.823Z,36.70
2019-05-06T14:33:38.608Z,36.20
2019-05-06T14:36:05.378Z,36.40
2019-05-06T14:38:32.704Z,36.00
2019-05-06T14:41:07.896Z,35.70
2019-05-06T14:43:35.353Z,35.70
2019-05-06T14:46:02.257Z,36.50
2019-05-06T14:48:29.163Z,34.90
2019-05-06T14:50:57.431Z,35.30
2019-05-06T14:53:24.518Z,35.80
2019-05-06T14:55:53.148Z,35.10
2019-05-06T14:58:22.709Z,35.70
2019-05-06T15:00:48.829Z,36.20
2019-05-06T15:03:15.863Z,35.10
2019-05-06T15:05:42.913Z,34.30
2019-05-06T15:08:09.589Z,33.90
2019-05-06T15:10:36.671Z,34.50
2019-05-06T15:13:03.511Z,34.80
2019-05-06T15:15:32.260Z,33.70
2019-05-06T15:17:58.934Z,33.80
2019-05-06T15:20:25.952Z,34.10
2019-05-06T15:22:53.106Z,33.70
2019-05-06T15:25:22.177Z,33.70
2019-05-06T15:27:49.197Z,34.10
2019-05-06T15:30:24.781Z,34.60
2019-05-06T15:32:52.918Z,33.10
2019-05-06T15:35:22.170Z,33.50
2019-05-06T15:37:53.642Z,33.40
2019-05-06T15:40:32.038Z,35.10
2019-05-06T15:42:50.506Z,34.60
2019-05-06T15:45:18.209Z,34.30
2019-05-06T15:47:45.990Z,35.50
2019-05-06T15:50:13.778Z,35.70
2019-05-06T15:52:43.275Z,35.60
2019-05-06T15:55:09.825Z,35.00
2019-05-06T15:57:36.647Z,34.80
2019-05-06T16:00:05.370Z,35.50
2019-05-06T16:02:33.932Z,35.60
2019-05-06T16:05:11.215Z,37.00
2019-05-06T16:07:34.628Z,36.60
2019-05-06T16:09:58.579Z,37.20
2019-05-06T16:12:25.358Z,37.90
2019-05-06T16:14:53.083Z,38.60
2019-05-06T16:17:20.180Z,39.50
2019-05-06T16:19:47.091Z,39.70
2019-05-06T16:22:13.841Z,40.60
2019-05-06T16:24:57.566Z,40.20
2019-05-06T16:27:24.348Z,39.50
2019-05-06T16:29:52.961Z,39.00
2019-05-06T16:32:21.856Z,39.60
2019-05-06T16:34:48.540Z,39.40
2019-05-06T16:37:15.529Z,38.40
2019-05-06T16:39:42.557Z,38.10
2019-05-06T16:42:12.713Z,37.50
2019-05-06T16:44:39.051Z,37.50
2019-05-06T16:47:05.864Z,36.70
2019-05-06T16:49:33.726Z,36.70
2019-05-06T16:52:02.602Z,35.80
2019-05-06T16:54:31.558Z,35.10
2019-05-06T16:57:05.014Z,35.20
2019-05-06T16:59:33.464Z,34.70
2019-05-06T17:02:02.477Z,34.10
2019-05-06T17:04:29.182Z,34.60
2019-05-06T17:06:55.985Z,34.60
2019-05-06T17:09:27.204Z,34.20
2019-05-06T17:11:51.483Z,33.80
2019-05-06T17:14:18.282Z,33.60
2019-05-06T17:16:45.055Z,33.90
2019-05-06T17:19:12.742Z,34.40
2019-05-06T17:21:42.121Z,34.40
2019-05-06T17:24:08.784Z,33.90
2019-05-06T17:26:35.659Z,33.50
2019-05-06T17:29:09.502Z,33.90
2019-05-06T17:31:56.404Z,33.80
2019-05-06T17:34:31.718Z,33.60
2019-05-06T17:37:00.194Z,33.40
2019-05-06T17:39:27.211Z,33.70
2019-05-06T17:41:54.208Z,33.00
2019-05-06T17:44:22.922Z,32.50
2019-05-06T17:46:55.775Z,33.00
2019-05-06T17:49:24.484Z,32.70
2019-05-06T17:51:54.171Z,33.40
2019-05-06T17:54:22.453Z,34.20
2019-05-06T17:56:52.381Z,34.60
2019-05-06T17:59:19.115Z,35.50
2019-05-06T18:01:47.699Z,35.60
2019-05-06T18:04:14.823Z,35.30
2019-05-06T18:06:42.467Z,34.80
2019-05-06T18:09:09.554Z,33.80
2019-05-06T18:11:36.761Z,33.50
2019-05-06T18:14:04.330Z,34.30
2019-05-06T18:16:33.493Z,33.90
2019-05-06T18:19:00.364Z,34.00
2019-05-06T18:21:27.146Z,34.40
2019-05-06T18:23:53.947Z,35.30
2019-05-06T18:26:22.792Z,36.20
2019-05-06T18:28:49.241Z,36.50
2019-05-06T18:31:16.171Z,38.10
2019-05-06T18:33:43.522Z,39.60
2019-05-06T18:36:12.506Z,39.90
2019-05-06T18:38:39.387Z,40.40
2019-05-06T18:41:06.827Z,40.20
2019-05-06T18:43:33.747Z,40.20
2019-05-06T18:46:02.656Z,39.30
2019-05-06T18:48:31.666Z,40.00
2019-05-06T18:50:58.186Z,40.40
2019-05-06T18:53:25.040Z,39.70
2019-05-06T18:55:51.888Z,41.50
2019-05-06T18:58:18.775Z,41.40
2019-05-06T19:00:45.884Z,43.70
2019-05-06T19:03:12.791Z,41.40
2019-05-06T19:05:42.890Z,42.00
2019-05-06T19:08:17.857Z,42.30
2019-05-06T19:10:44.657Z,42.30
2019-05-06T19:13:12.669Z,42.50
2019-05-06T19:15:39.915Z,42.50
2019-05-06T19:18:06.727Z,43.20
2019-05-06T19:20:33.993Z,43.00
2019-05-06T19:23:02.336Z,45.30
2019-05-06T19:25:29.387Z,45.30
2019-05-06T19:27:56.244Z,43.90
2019-05-06T19:30:23.191Z,44.90
2019-05-06T19:32:50.238Z,44.10
2019-05-06T19:35:17.128Z,44.70
2019-05-06T19:37:44.278Z,45.30
2019-05-06T19:40:12.169Z,45.90
2019-05-06T19:42:47.022Z,45.80
2019-05-06T19:45:08.937Z,45.50
2019-05-06T19:47:35.757Z,45.30
2019-05-06T19:50:04.448Z,46.50
2019-05-06T19:52:32.633Z,46.90
2019-05-06T19:55:00.091Z,47.30
2019-05-06T19:57:27.925Z,47.40
2019-05-06T19:59:55.288Z,47.50
2019-05-06T20:02:25.548Z,47.60
2019-05-06T20:04:53.299Z,47.40
2019-05-06T20:07:20.047Z,47.50
2019-05-06T20:09:47.298Z,47.80
2019-05-06T20:12:16.051Z,47.60
2019-05-06T20:14:43.115Z,47.90
2019-05-06T20:17:09.935Z,47.90
2019-05-06T20:19:36.727Z,48.40
2019-05-06T20:22:03.875Z,48.30
2019-05-06T20:24:33.065Z,48.00
2019-05-06T20:26:59.496Z,48.80
2019-05-06T20:29:26.311Z,48.30
2019-05-06T20:31:53.607Z,48.50
2019-05-06T20:34:22.392Z,49.50
2019-05-06T20:36:49.680Z,49.70
2019-05-06T20:39:16.518Z,54.70
2019-05-06T20:41:43.581Z,54.60
2019-05-06T20:44:12.379Z,48.50
2019-05-06T20:46:39.139Z,48.70
2019-05-06T20:49:06.007Z,52.60
2019-05-06T20:51:32.995Z,51.40
2019-05-06T20:53:59.814Z,49.40
2019-05-06T20:56:26.623Z,44.80
2019-05-06T20:58:53.437Z,51.00
2019-05-06T21:01:21.845Z,53.20
2019-05-06T21:03:49.008Z,53.40
2019-05-06T21:06:16.155Z,52.30
2019-05-06T21:08:43.054Z,47.90
2019-05-06T21:11:24.914Z,46.40
2019-05-06T21:13:38.557Z,49.50
2019-05-06T21:16:05.385Z,49.40
2019-05-06T21:18:32.624Z,48.80
2019-05-06T21:21:01.920Z,46.40
2019-05-06T21:23:28.537Z,46.50
2019-05-06T21:25:55.335Z,46.20
2019-05-06T21:28:23.742Z,46.20
2019-05-06T21:30:52.234Z,44.20
2019-05-06T21:33:19.240Z,41.70
2019-05-06T21:35:48.753Z,41.20
2019-05-06T21:38:14.778Z,42.00
2019-05-06T21:40:43.345Z,43.50
2019-05-06T21:43:12.827Z,42.20
2019-05-06T21:45:39.199Z,41.50
2019-05-06T21:48:06.018Z,41.30
2019-05-06T21:50:33.617Z,41.80
2019-05-06T21:53:02.765Z,42.00
2019-05-06T21:55:29.635Z,42.50
2019-05-06T21:57:56.478Z,42.90
2019-05-06T22:00:25.254Z,43.00
2019-05-06T22:02:52.958Z,43.20
2019-05-06T22:05:19.996Z,43.70
2019-05-06T22:07:47.014Z,43.90
2019-05-06T22:10:14.006Z,43.80
2019-05-06T22:12:43.193Z,44.10
2019-05-06T22:15:11.900Z,44.10
2019-05-06T22:17:39.110Z,43.90
2019-05-06T22:20:06.319Z,44.40
2019-05-06T22:22:37.128Z,46.10
2019-05-06T22:25:05.122Z,45.90
2019-05-06T22:27:32.444Z,46.40
2019-05-06T22:29:59.235Z,45.90
2019-05-06T22:32:26.052Z,46.40
2019-05-06T22:34:52.829Z,47.00
2019-05-06T22:37:21.996Z,46.30
2019-05-06T22:39:48.308Z,46.00
2019-05-06T22:42:15.238Z,45.90
2019-05-06T22:44:42.886Z,46.20
2019-05-06T22:47:11.682Z,47.20
2019-05-06T22:49:38.783Z,47.50
2019-05-06T22:52:05.732Z,48.80
2019-05-06T22:54:32.618Z,49.70
2019-05-06T22:56:59.401Z,51.70
2019-05-06T22:59:26.200Z,55.70
2019-05-06T23:01:55.021Z,53.30
2019-05-06T23:04:24.115Z,52.70
2019-05-06T23:06:51.129Z,51.80
2019-05-06T23:09:18.107Z,50.60
2019-05-06T23:11:45.124Z,51.30
2019-05-06T23:14:13.786Z,51.80
2019-05-06T23:16:42.431Z,51.90
2019-05-06T23:19:09.784Z,51.80
2019-05-06T23:21:36.863Z,51.90
2019-05-06T23:24:03.798Z,53.70
2019-05-06T23:26:30.911Z,52.20
2019-05-06T23:28:57.718Z,53.20
2019-05-06T23:31:24.726Z,55.10
2019-05-06T23:33:53.388Z,54.60
2019-05-06T23:36:20.428Z,54.40
2019-05-06T23:39:57.199Z,54.60
2019-05-06T23:43:19.690Z,55.10
2019-05-06T23:46:42.748Z,55.50
2019-05-06T23:50:05.608Z,55.20
2019-05-06T23:53:28.185Z,55.70
2019-05-06T23:56:39.569Z,56.20
2019-05-06T23:59:12.371Z,57.00
